createdAt,value
2022-08-28T00:00:31.313Z,18.24
2022-08-28T00:03:09.564Z,18.18
2022-08-28T00:05:39.847Z,18.15
2022-08-28T00:08:10.483Z,18.14
2022-08-28T00:10:40.208Z,18.13
2022-08-28T00:13:18.644Z,18.14
2022-08-28T00:17:02.368Z,18.14
2022-08-28T00:19:31.138Z,18.11
2022-08-28T00:22:00.823Z,18.10
2022-08-28T00:24:28.993Z,18.10
2022-08-28T00:27:15.704Z,18.09
2022-08-28T00:29:47.104Z,18.00
2022-08-28T00:32:15.199Z,17.93
2022-08-28T00:34:43.208Z,17.89
2022-08-28T00:37:11.759Z,17.83
2022-08-28T00:39:39.722Z,17.78
2022-08-28T00:42:08.809Z,17.78
2022-08-28T00:44:36.966Z,17.76
2022-08-28T00:47:05.043Z,17.75
2022-08-28T00:49:37.642Z,17.71
2022-08-28T00:52:12.173Z,17.68
2022-08-28T00:54:58.606Z,17.65
2022-08-28T00:57:36.356Z,17.61
2022-08-28T01:00:12.111Z,17.59
2022-08-28T01:02:40.894Z,17.57
2022-08-28T01:05:10.002Z,17.54
2022-08-28T01:07:38.905Z,17.53
2022-08-28T01:10:12.451Z,17.54
2022-08-28T01:12:41.101Z,17.52
2022-08-28T01:15:14.036Z,17.48
2022-08-28T01:17:48.139Z,17.44
2022-08-28T01:20:21.250Z,17.43
2022-08-28T01:23:08.090Z,17.45
2022-08-28T01:25:38.277Z,17.50
2022-08-28T01:28:12.757Z,17.57
2022-08-28T01:30:44.700Z,17.63
2022-08-28T01:33:15.910Z,17.67
2022-08-28T01:35:47.883Z,17.69
2022-08-28T01:38:19.579Z,17.67
2022-08-28T01:40:52.642Z,17.67
2022-08-28T01:43:24.217Z,17.64
2022-08-28T01:46:03.023Z,17.62
2022-08-28T01:48:35.127Z,17.60
2022-08-28T01:51:04.915Z,17.56
2022-08-28T01:53:33.599Z,17.57
2022-08-28T01:56:04.928Z,17.56
2022-08-28T01:58:37.896Z,17.55
2022-08-28T02:01:12.198Z,17.53
2022-08-28T02:03:40.588Z,17.52
2022-08-28T02:06:08.877Z,17.55
2022-08-28T02:08:37.243Z,17.56
2022-08-28T02:11:07.576Z,17.57
2022-08-28T02:13:37.373Z,17.56
2022-08-28T02:16:09.075Z,17.54
2022-08-28T02:18:38.111Z,17.57
2022-08-28T02:21:07.694Z,17.62
2022-08-28T02:23:39.015Z,17.64
2022-08-28T02:26:07.851Z,17.68
2022-08-28T02:28:36.872Z,17.70
2022-08-28T02:31:08.458Z,17.67
2022-08-28T02:33:41.764Z,17.60
2022-08-28T02:36:12.824Z,17.54
2022-08-28T02:38:41.540Z,17.48
2022-08-28T02:41:10.409Z,17.46
2022-08-28T02:43:39.638Z,17.46
2022-08-28T02:46:07.860Z,17.45
2022-08-28T02:48:38.217Z,17.44
2022-08-28T02:51:10.292Z,17.41
2022-08-28T02:53:39.305Z,17.41
2022-08-28T02:56:08.132Z,17.35
2022-08-28T02:58:36.482Z,17.31
2022-08-28T03:01:07.645Z,17.27
2022-08-28T03:03:35.743Z,17.23
2022-08-28T03:06:06.543Z,17.18
2022-08-28T03:08:34.567Z,17.14
2022-08-28T03:11:02.528Z,17.09
2022-08-28T03:13:30.823Z,17.09
2022-08-28T03:15:59.307Z,17.08
2022-08-28T03:18:30.309Z,17.09
2022-08-28T03:20:59.201Z,17.08
2022-08-28T03:23:27.319Z,17.05
2022-08-28T03:26:09.067Z,17.02
2022-08-28T03:28:43.604Z,16.97
2022-08-28T03:31:15.571Z,16.95
2022-08-28T03:33:44.750Z,16.91
2022-08-28T03:36:17.793Z,16.88
2022-08-28T03:38:46.129Z,16.87
2022-08-28T03:41:17.269Z,16.87
2022-08-28T03:43:45.572Z,16.86
2022-08-28T03:46:21.366Z,16.84
2022-08-28T03:48:50.483Z,16.81
2022-08-28T03:51:29.200Z,16.81
2022-08-28T03:53:59.400Z,16.84
2022-08-28T03:56:30.212Z,16.88
2022-08-28T03:59:01.555Z,16.89
2022-08-28T04:01:29.695Z,16.89
2022-08-28T04:03:57.934Z,16.90
2022-08-28T04:06:26.067Z,16.92
2022-08-28T04:08:54.148Z,16.99
2022-08-28T04:11:22.544Z,17.05
2022-08-28T04:13:50.853Z,17.11
2022-08-28T04:16:19.729Z,17.18
2022-08-28T04:18:49.510Z,17.23
2022-08-28T04:21:20.997Z,17.27
2022-08-28T04:23:48.993Z,17.26
2022-08-28T04:26:20.746Z,17.27
2022-08-28T04:28:49.958Z,17.25
2022-08-28T04:31:32.497Z,17.26
2022-08-28T04:34:02.555Z,17.28
2022-08-28T04:36:31.064Z,17.33
2022-08-28T04:38:59.870Z,17.41
2022-08-28T04:41:29.060Z,17.47
2022-08-28T04:43:57.827Z,17.57
2022-08-28T04:46:26.059Z,17.67
2022-08-28T04:48:55.433Z,17.78
2022-08-28T04:51:23.328Z,17.88
2022-08-28T04:53:51.193Z,17.98
2022-08-28T04:56:19.106Z,18.08
2022-08-28T04:58:48.256Z,18.14
2022-08-28T05:01:20.141Z,18.20
2022-08-28T05:03:52.531Z,18.29
2022-08-28T05:06:21.922Z,18.40
2022-08-28T05:08:50.279Z,18.47
2022-08-28T05:11:30.751Z,18.55
2022-08-28T05:14:15.820Z,18.62
2022-08-28T05:16:50.823Z,18.66
2022-08-28T05:19:20.640Z,18.75
2022-08-28T05:21:48.556Z,18.82
2022-08-28T05:24:16.987Z,18.87
2022-08-28T05:26:48.132Z,18.90
2022-08-28T05:29:17.086Z,18.93
2022-08-28T05:31:46.315Z,18.95
2022-08-28T05:34:15.354Z,18.99
2022-08-28T05:36:43.376Z,19.03
2022-08-28T05:39:13.713Z,19.06
2022-08-28T05:41:44.513Z,19.09
2022-08-28T05:44:15.513Z,19.09
2022-08-28T05:46:46.942Z,19.14
2022-08-28T05:49:15.941Z,19.23
2022-08-28T05:51:44.266Z,19.35
2022-08-28T05:54:12.564Z,19.44
2022-08-28T05:56:42.317Z,19.50
2022-08-28T05:59:11.209Z,19.57
2022-08-28T06:01:42.650Z,19.64
2022-08-28T06:04:14.690Z,19.73
2022-08-28T06:06:42.854Z,19.87
2022-08-28T06:09:28.998Z,19.98
2022-08-28T06:12:00.028Z,20.08
2022-08-28T06:14:28.209Z,20.11
2022-08-28T06:16:56.894Z,20.22
2022-08-28T06:19:26.821Z,20.31
2022-08-28T06:21:57.488Z,20.39
2022-08-28T06:24:27.660Z,20.51
2022-08-28T06:26:58.576Z,20.62
2022-08-28T06:29:28.294Z,20.69
2022-08-28T06:32:01.572Z,20.75
2022-08-28T06:34:30.077Z,20.79
2022-08-28T06:36:58.172Z,20.90
2022-08-28T06:39:26.154Z,21.03
2022-08-28T06:41:54.256Z,21.13
2022-08-28T06:44:22.930Z,21.27
2022-08-28T06:46:53.393Z,21.39
2022-08-28T06:49:21.439Z,21.48
2022-08-28T06:51:49.917Z,21.57
2022-08-28T06:54:22.324Z,21.64
2022-08-28T06:56:52.458Z,21.69
2022-08-28T06:59:21.049Z,21.79
2022-08-28T07:01:49.506Z,21.88
2022-08-28T07:04:17.712Z,21.98
2022-08-28T07:06:46.994Z,22.05
2022-08-28T07:09:16.536Z,22.10
2022-08-28T07:11:48.843Z,22.14
2022-08-28T07:14:17.353Z,22.17
2022-08-28T07:16:45.318Z,22.22
2022-08-28T07:19:13.799Z,22.30
2022-08-28T07:21:44.406Z,22.36
2022-08-28T07:24:14.857Z,22.44
2022-08-28T07:26:44.878Z,22.51
2022-08-28T07:29:13.111Z,22.52
2022-08-28T07:31:47.246Z,22.55
2022-08-28T07:34:17.276Z,22.60
2022-08-28T07:36:45.881Z,22.68
2022-08-28T07:39:15.603Z,22.81
2022-08-28T07:41:44.314Z,22.96
2022-08-28T07:44:33.022Z,23.07
2022-08-28T07:47:04.569Z,23.18
2022-08-28T07:49:34.602Z,23.21
2022-08-28T07:52:03.593Z,23.21
2022-08-28T07:54:31.756Z,23.21
2022-08-28T07:56:59.775Z,23.25
2022-08-28T07:59:31.579Z,23.31
2022-08-28T08:02:06.453Z,23.30
2022-08-28T08:04:35.393Z,23.32
2022-08-28T08:07:04.898Z,23.34
2022-08-28T08:09:38.284Z,23.43
2022-08-28T08:12:08.046Z,23.47
2022-08-28T08:14:39.935Z,23.52
2022-08-28T08:17:08.962Z,23.62
2022-08-28T08:19:37.527Z,23.70
2022-08-28T08:22:05.703Z,23.74
2022-08-28T08:24:33.803Z,23.75
2022-08-28T08:27:03.156Z,23.88
2022-08-28T08:29:35.966Z,23.97
2022-08-28T08:32:10.905Z,23.91
2022-08-28T08:34:41.982Z,23.96
2022-08-28T08:37:12.848Z,23.99
2022-08-28T08:39:42.659Z,23.99
2022-08-28T08:42:32.332Z,23.99
2022-08-28T08:45:04.420Z,24.11
2022-08-28T08:47:50.099Z,24.24
2022-08-28T08:50:35.708Z,24.21
2022-08-28T08:53:14.176Z,24.23
2022-08-28T08:55:51.169Z,24.39
2022-08-28T08:58:31.849Z,24.56
2022-08-28T09:01:20.377Z,24.58
2022-08-28T09:04:04.817Z,24.67
2022-08-28T09:06:46.750Z,24.75
2022-08-28T09:09:26.793Z,24.78
2022-08-28T09:11:57.382Z,24.75
2022-08-28T09:14:57.733Z,24.61
2022-08-28T09:17:48.043Z,24.49
2022-08-28T09:20:20.282Z,24.39
2022-08-28T09:23:00.864Z,24.34
2022-08-28T09:25:51.547Z,24.22
2022-08-28T09:28:28.382Z,24.15
2022-08-28T09:31:07.648Z,24.12
2022-08-28T09:33:44.991Z,24.16
2022-08-28T09:36:36.565Z,24.15
2022-08-28T09:39:22.531Z,24.16
2022-08-28T09:42:38.276Z,24.17
2022-08-28T09:45:21.222Z,24.17
2022-08-28T09:47:50.821Z,24.26
2022-08-28T09:50:24.526Z,24.38
2022-08-28T09:52:56.272Z,24.40
2022-08-28T09:55:30.769Z,24.47
2022-08-28T09:57:59.376Z,24.58
2022-08-28T10:00:34.254Z,24.64
2022-08-28T10:03:18.225Z,24.70
2022-08-28T10:06:04.121Z,24.73
2022-08-28T10:08:41.126Z,24.75
2022-08-28T10:11:24.237Z,24.80
2022-08-28T10:14:49.021Z,24.84
2022-08-28T10:17:26.126Z,24.76
2022-08-28T10:20:10.670Z,24.74
2022-08-28T10:22:52.245Z,24.80
2022-08-28T10:25:59.670Z,24.91
2022-08-28T10:28:56.899Z,24.90
2022-08-28T10:31:55.012Z,24.89
2022-08-28T10:34:25.979Z,24.85
2022-08-28T10:37:17.840Z,24.93
2022-08-28T10:40:04.747Z,25.07
2022-08-28T10:42:48.605Z,25.03
2022-08-28T10:45:21.771Z,24.91
2022-08-28T10:48:53.450Z,24.96
2022-08-28T10:51:54.355Z,25.03
2022-08-28T10:54:50.817Z,25.07
2022-08-28T10:57:39.779Z,25.22
2022-08-28T11:00:15.786Z,25.38
2022-08-28T11:02:51.685Z,25.46
2022-08-28T11:05:23.449Z,25.50
2022-08-28T11:08:27.819Z,25.49
2022-08-28T11:10:58.817Z,25.45
2022-08-28T11:13:48.690Z,25.38
2022-08-28T11:16:45.690Z,25.36
2022-08-28T11:19:32.373Z,25.35
2022-08-28T11:22:10.689Z,25.37
2022-08-28T11:24:52.684Z,25.41
2022-08-28T11:27:36.126Z,25.43
2022-08-28T11:30:09.933Z,25.53
2022-08-28T11:32:57.702Z,25.64
2022-08-28T11:35:37.284Z,25.65
2022-08-28T11:38:05.969Z,25.69
2022-08-28T11:40:34.017Z,25.73
2022-08-28T11:43:17.035Z,25.73
2022-08-28T11:45:50.849Z,25.75
2022-08-28T11:48:33.773Z,25.69
2022-08-28T11:51:28.161Z,25.69
2022-08-28T11:54:35.027Z,25.73
2022-08-28T11:57:05.687Z,25.70
2022-08-28T11:59:49.441Z,25.67
2022-08-28T12:02:44.375Z,25.75
2022-08-28T12:05:32.434Z,25.75
2022-08-28T12:08:03.070Z,25.93
2022-08-28T12:10:32.892Z,26.12
2022-08-28T12:13:07.463Z,26.25
2022-08-28T12:15:35.501Z,26.37
2022-08-28T12:18:11.177Z,26.49
2022-08-28T12:21:01.517Z,26.53
2022-08-28T12:23:29.508Z,26.69
2022-08-28T12:26:08.833Z,26.77
2022-08-28T12:28:50.536Z,26.64
2022-08-28T12:31:53.355Z,26.61
2022-08-28T12:34:43.801Z,26.56
2022-08-28T12:37:51.553Z,26.80
2022-08-28T12:40:23.804Z,27.06
2022-08-28T12:43:01.441Z,27.08
2022-08-28T12:45:37.282Z,27.18
2022-08-28T12:48:33.598Z,27.03
2022-08-28T12:51:37.977Z,26.88
2022-08-28T12:54:08.394Z,26.90
2022-08-28T12:56:40.253Z,27.05
2022-08-28T12:59:32.821Z,27.42
2022-08-28T13:02:06.816Z,27.94
2022-08-28T13:05:01.099Z,28.19
2022-08-28T13:07:37.056Z,28.27
2022-08-28T13:10:19.940Z,28.17
2022-08-28T13:12:58.809Z,27.99
2022-08-28T13:15:47.977Z,27.70
2022-08-28T13:18:36.021Z,27.34
2022-08-28T13:21:13.473Z,27.03
2022-08-28T13:23:41.585Z,26.74
2022-08-28T13:26:11.128Z,26.27
2022-08-28T13:28:42.611Z,25.82
2022-08-28T13:31:40.233Z,25.20
2022-08-28T13:34:17.364Z,24.65
2022-08-28T13:36:54.541Z,24.13
2022-08-28T13:39:23.109Z,23.75
2022-08-28T13:41:55.840Z,23.43
2022-08-28T13:44:29.733Z,23.27
2022-08-28T13:47:00.007Z,23.22
2022-08-28T13:49:28.762Z,23.14
2022-08-28T13:51:59.174Z,23.09
2022-08-28T13:54:28.097Z,23.04
2022-08-28T13:56:56.385Z,23.03
2022-08-28T13:59:24.686Z,22.98
2022-08-28T14:02:15.238Z,22.93
2022-08-28T14:04:44.058Z,22.86
2022-08-28T14:07:14.023Z,22.87
2022-08-28T14:09:42.485Z,22.83
2022-08-28T14:12:11.320Z,22.80
2022-08-28T14:14:39.776Z,22.67
2022-08-28T14:17:09.973Z,22.56
2022-08-28T14:19:38.041Z,22.44
2022-08-28T14:22:06.068Z,22.25
2022-08-28T14:24:34.096Z,22.15
2022-08-28T14:27:02.853Z,22.05
2022-08-28T14:29:31.850Z,21.89
2022-08-28T14:32:00.333Z,21.70
2022-08-28T14:34:28.374Z,21.49
2022-08-28T14:36:56.365Z,21.36
2022-08-28T14:39:26.758Z,21.17
2022-08-28T14:41:55.265Z,20.95
2022-08-28T14:44:25.305Z,20.64
2022-08-28T14:46:56.139Z,20.46
2022-08-28T14:49:26.987Z,20.35
2022-08-28T14:51:57.143Z,20.24
2022-08-28T14:54:26.234Z,20.14
2022-08-28T14:56:55.313Z,19.95
2022-08-28T14:59:26.434Z,19.89
2022-08-28T15:02:00.610Z,19.79
2022-08-28T15:04:34.873Z,19.71
2022-08-28T15:07:07.906Z,19.69
2022-08-28T15:09:39.342Z,19.65
2022-08-28T15:12:08.167Z,19.61
2022-08-28T15:14:36.567Z,19.59
2022-08-28T15:17:04.782Z,19.55
2022-08-28T15:19:32.892Z,19.51
2022-08-28T15:22:00.989Z,19.49
2022-08-28T15:24:31.563Z,19.46
2022-08-28T15:26:59.830Z,19.38
2022-08-28T15:29:30.093Z,19.23
2022-08-28T15:31:58.436Z,19.15
2022-08-28T15:34:28.569Z,19.11
2022-08-28T15:36:57.668Z,19.06
2022-08-28T15:39:46.358Z,18.99
2022-08-28T15:42:14.996Z,18.91
2022-08-28T15:44:43.606Z,18.79
2022-08-28T15:47:14.050Z,18.74
2022-08-28T15:49:48.723Z,18.62
2022-08-28T15:52:19.260Z,18.58
2022-08-28T15:54:49.790Z,18.50
2022-08-28T15:57:18.537Z,18.47
2022-08-28T15:59:50.125Z,18.45
2022-08-28T16:02:22.435Z,18.40
2022-08-28T16:04:52.290Z,18.36
2022-08-28T16:07:22.042Z,18.35
2022-08-28T16:09:50.778Z,18.37
2022-08-28T16:12:19.210Z,18.37
2022-08-28T16:14:47.298Z,18.39
2022-08-28T16:17:15.783Z,18.37
2022-08-28T16:19:45.373Z,18.38
2022-08-28T16:22:16.189Z,18.41
2022-08-28T16:24:45.630Z,18.43
2022-08-28T16:27:15.622Z,18.45
2022-08-28T16:29:45.205Z,18.47
2022-08-28T16:32:13.355Z,18.48
2022-08-28T16:34:44.950Z,18.52
2022-08-28T16:37:13.411Z,18.56
2022-08-28T16:39:46.714Z,18.61
2022-08-28T16:42:15.445Z,18.66
2022-08-28T16:44:43.404Z,18.66
2022-08-28T16:47:11.432Z,18.68
2022-08-28T16:49:39.443Z,18.71
2022-08-28T16:52:07.325Z,18.76
2022-08-28T16:54:35.399Z,18.80
2022-08-28T16:57:03.439Z,18.82
2022-08-28T16:59:31.831Z,18.84
2022-08-28T17:02:00.026Z,18.84
2022-08-28T17:04:28.220Z,18.87
2022-08-28T17:06:56.327Z,18.87
2022-08-28T17:09:25.054Z,18.86
2022-08-28T17:11:53.928Z,18.83
2022-08-28T17:14:22.681Z,18.79
2022-08-28T17:16:51.654Z,18.76
2022-08-28T17:19:21.164Z,18.69
2022-08-28T17:22:08.325Z,18.65
2022-08-28T17:24:37.072Z,18.61
2022-08-28T17:27:05.990Z,18.59
2022-08-28T17:29:36.605Z,18.58
2022-08-28T17:32:08.043Z,18.60
2022-08-28T17:34:36.295Z,18.61
2022-08-28T17:37:05.270Z,18.61
2022-08-28T17:39:33.511Z,18.65
2022-08-28T17:42:04.420Z,18.66
2022-08-28T17:44:32.643Z,18.67
2022-08-28T17:47:01.216Z,18.67
2022-08-28T17:49:29.565Z,18.66
2022-08-28T17:51:58.015Z,18.66
2022-08-28T17:54:26.673Z,18.59
2022-08-28T17:56:55.654Z,18.54
2022-08-28T17:59:25.847Z,18.49
2022-08-28T18:01:55.122Z,18.48
2022-08-28T18:04:24.626Z,18.50
2022-08-28T18:06:55.021Z,18.52
2022-08-28T18:09:24.461Z,18.53
2022-08-28T18:11:53.295Z,18.53
2022-08-28T18:14:22.069Z,18.53
2022-08-28T18:16:51.199Z,18.51
2022-08-28T18:19:20.464Z,18.48
2022-08-28T18:21:48.686Z,18.46
2022-08-28T18:24:17.586Z,18.47
2022-08-28T18:26:47.685Z,18.46
2022-08-28T18:29:16.033Z,18.45
2022-08-28T18:31:44.401Z,18.45
2022-08-28T18:34:12.787Z,18.44
2022-08-28T18:36:43.391Z,18.43
2022-08-28T18:39:11.699Z,18.42
2022-08-28T18:41:44.159Z,18.42
2022-08-28T18:44:14.988Z,18.45
2022-08-28T18:46:44.277Z,18.48
2022-08-28T18:49:13.445Z,18.45
2022-08-28T18:51:43.741Z,18.43
2022-08-28T18:54:15.987Z,18.42
2022-08-28T18:56:47.566Z,18.42
2022-08-28T18:59:18.942Z,18.42
2022-08-28T19:01:47.284Z,18.43
2022-08-28T19:04:15.742Z,18.41
2022-08-28T19:06:44.425Z,18.37
2022-08-28T19:09:19.289Z,18.37
2022-08-28T19:11:49.306Z,18.37
2022-08-28T19:14:17.640Z,18.39
2022-08-28T19:16:46.388Z,18.36
2022-08-28T19:19:15.621Z,18.35
2022-08-28T19:21:44.359Z,18.35
2022-08-28T19:24:16.689Z,18.31
2022-08-28T19:26:46.515Z,18.31
2022-08-28T19:29:17.038Z,18.33
2022-08-28T19:31:45.342Z,18.35
2022-08-28T19:34:13.627Z,18.36
2022-08-28T19:36:42.151Z,18.36
2022-08-28T19:39:10.409Z,18.37
2022-08-28T19:41:39.669Z,18.38
2022-08-28T19:44:09.011Z,18.40
2022-08-28T19:46:39.059Z,18.42
2022-08-28T19:49:07.941Z,18.33
2022-08-28T19:51:39.149Z,18.41
2022-08-28T19:54:11.469Z,18.43
2022-08-28T19:56:40.294Z,18.45
2022-08-28T19:59:10.563Z,18.45
2022-08-28T20:01:40.908Z,18.47
2022-08-28T20:04:09.709Z,18.49
2022-08-28T20:06:37.710Z,18.51
2022-08-28T20:09:12.053Z,18.54
2022-08-28T20:11:44.311Z,18.58
2022-08-28T20:14:14.175Z,18.59
2022-08-28T20:16:47.181Z,18.61
2022-08-28T20:19:15.644Z,18.65
2022-08-28T20:21:44.793Z,18.65
2022-08-28T20:24:17.630Z,18.67
2022-08-28T20:26:45.609Z,18.68
2022-08-28T20:29:14.864Z,18.66
2022-08-28T20:31:46.450Z,18.67
2022-08-28T20:34:18.030Z,18.65
2022-08-28T20:36:46.445Z,18.65
2022-08-28T20:39:15.631Z,18.62
2022-08-28T20:41:44.951Z,18.62
2022-08-28T20:44:15.676Z,18.58
2022-08-28T20:46:44.458Z,18.57
2022-08-28T20:49:24.007Z,18.57
2022-08-28T20:51:58.966Z,18.55
2022-08-28T20:54:26.953Z,18.54
2022-08-28T20:57:01.727Z,18.55
2022-08-28T20:59:39.384Z,18.55
2022-08-28T21:02:24.200Z,18.57
2022-08-28T21:04:53.564Z,18.58
2022-08-28T21:07:24.276Z,18.59
2022-08-28T21:10:05.761Z,18.60
2022-08-28T21:12:38.608Z,18.59
2022-08-28T21:15:09.271Z,18.62
2022-08-28T21:17:37.407Z,18.62
2022-08-28T21:20:11.501Z,18.62
2022-08-28T21:22:39.730Z,18.63
2022-08-28T21:25:10.559Z,18.58
2022-08-28T21:27:39.087Z,18.56
2022-08-28T21:30:09.038Z,18.54
2022-08-28T21:32:37.306Z,18.49
2022-08-28T21:35:07.416Z,18.47
2022-08-28T21:37:35.773Z,18.44
2022-08-28T21:40:13.242Z,18.41
2022-08-28T21:42:41.706Z,18.38
2022-08-28T21:46:26.037Z,18.36
2022-08-28T21:48:56.330Z,18.31
2022-08-28T21:51:25.451Z,18.31
2022-08-28T21:53:55.780Z,18.26
2022-08-28T21:56:27.209Z,18.23
2022-08-28T21:58:56.699Z,18.23
2022-08-28T22:01:26.682Z,18.19
2022-08-28T22:03:55.647Z,18.19
2022-08-28T22:06:26.442Z,18.19
2022-08-28T22:08:55.825Z,18.16
2022-08-28T22:11:25.416Z,18.14
2022-08-28T22:13:57.079Z,18.14
2022-08-28T22:16:26.391Z,18.13
2022-08-28T22:18:56.417Z,18.09
2022-08-28T22:21:45.794Z,18.02
2022-08-28T22:24:14.185Z,17.98
2022-08-28T22:26:43.984Z,17.96
2022-08-28T22:29:12.489Z,17.95
2022-08-28T22:31:45.618Z,17.92
2022-08-28T22:34:14.750Z,17.91
2022-08-28T22:36:42.720Z,17.91
2022-08-28T22:39:10.688Z,17.90
2022-08-28T22:41:38.779Z,17.89
2022-08-28T22:44:07.341Z,17.89
2022-08-28T22:46:36.091Z,17.87
2022-08-28T22:49:05.136Z,17.86
2022-08-28T22:51:34.654Z,17.86
2022-08-28T22:54:02.720Z,17.86
2022-08-28T22:56:30.695Z,17.84
2022-08-28T22:58:58.784Z,17.83
2022-08-28T23:01:26.930Z,17.82
2022-08-28T23:03:55.195Z,17.81
2022-08-28T23:06:23.311Z,17.80
2022-08-28T23:08:51.322Z,17.79
2022-08-28T23:11:19.281Z,17.78
2022-08-28T23:13:47.397Z,17.78
2022-08-28T23:16:23.996Z,17.79
2022-08-28T23:19:07.859Z,17.80
2022-08-28T23:21:43.471Z,17.79
2022-08-28T23:24:16.268Z,17.79
2022-08-28T23:26:45.662Z,17.77
2022-08-28T23:29:15.121Z,17.76
2022-08-28T23:31:43.170Z,17.71
2022-08-28T23:34:11.482Z,17.69
2022-08-28T23:36:42.905Z,17.71
2022-08-28T23:39:11.605Z,17.74
2022-08-28T23:41:40.099Z,17.74
2022-08-28T23:44:09.512Z,17.72
2022-08-28T23:46:41.794Z,17.73
2022-08-28T23:49:11.408Z,17.75
2022-08-28T23:51:43.027Z,17.76
2022-08-28T23:54:11.525Z,17.77
2022-08-28T23:56:39.485Z,17.78
2022-08-28T23:59:07.596Z,17.80
